Time;durP1;ratioP1;P1;durP2;ratioP2;P2;SDS_P1;SDS_P2;PMS_P1;PMS_P2;Temp;Humidity;BMP_temperature;BMP_pressure;BME280_temperature;BME280_humidity;BME280_pressure;Samples;Min_cycle;Max_cycle;Signal;HPM_P1;HPM_P2
2021/07/08 00:00:44;;;;;;;1.25;0.60;;;;;;;12.57;85.00;91056.41;5017071;28;20029;-85
2021/07/08 00:03:22;;;;;;;0.95;0.60;;;;;;;12.52;84.98;91062.63;5017529;28;20029;-85
2021/07/08 00:05:49;;;;;;;2.58;0.70;;;;;;;12.52;85.11;91067.09;5016571;28;20042;-85
2021/07/08 00:08:26;;;;;;;2.00;0.70;;;;;;;12.49;84.48;91063.31;4999902;28;20040;-87
2021/07/08 00:11:06;;;;;;;1.35;0.57;;;;;;;12.42;84.84;91079.56;5016183;28;20029;-86
2021/07/08 00:13:45;;;;;;;1.13;0.60;;;;;;;12.48;84.97;91100.25;5001263;28;20025;-85
2021/07/08 00:16:33;;;;;;;3.05;0.60;;;;;;;12.46;84.89;91105.03;5032702;28;20029;-86
2021/07/08 00:19:11;;;;;;;0.98;0.60;;;;;;;12.44;85.07;91103.53;5032308;28;20045;-87
2021/07/08 00:21:49;;;;;;;1.45;0.68;;;;;;;12.55;84.33;91114.25;5017365;28;20492;-86
2021/07/08 00:24:26;;;;;;;1.08;0.65;;;;;;;12.44;84.81;91113.22;5017261;28;20040;-86
2021/07/08 00:27:09;;;;;;;1.15;0.70;;;;;;;12.55;84.69;91127.31;5014734;28;20062;-85
2021/07/08 00:29:35;;;;;;;0.60;0.40;;;;;;;12.54;84.74;91125.78;5015796;28;20087;-85
2021/07/08 00:32:16;;;;;;;1.00;0.60;;;;;;;12.49;85.38;91127.88;5032628;28;20040;-85
2021/07/08 00:34:56;;;;;;;3.72;0.60;;;;;;;12.33;85.79;91126.00;5032115;28;20473;-86
2021/07/08 00:37:31;;;;;;;3.35;0.60;;;;;;;12.41;85.83;91140.78;5032356;28;20029;-86
2021/07/08 00:40:09;;;;;;;2.97;0.60;;;;;;;12.40;85.82;91134.03;5015813;28;20049;-85
2021/07/08 00:42:49;;;;;;;1.63;0.50;;;;;;;12.34;85.78;91126.75;5016513;28;20087;-87
2021/07/08 00:45:23;;;;;;;2.60;0.60;;;;;;;12.51;85.31;91139.53;5015788;28;20500;-86
2021/07/08 00:47:56;;;;;;;1.17;0.57;;;;;;;12.36;85.80;91130.53;5015736;28;20036;-85
2021/07/08 00:50:36;;;;;;;2.80;0.70;;;;;;;12.48;85.79;91134.22;5032027;28;20045;-86
2021/07/08 00:53:17;;;;;;;1.58;0.90;;;;;;;12.62;85.55;91139.81;5011777;28;20014;-89
2021/07/08 00:56:00;;;;;;;3.20;0.80;;;;;;;12.57;85.61;91119.13;5024862;28;20037;-86
2021/07/08 00:58:39;;;;;;;2.28;0.80;;;;;;;12.55;85.99;91118.72;5035632;28;20473;-86
2021/07/08 01:01:18;;;;;;;2.65;0.70;;;;;;;12.47;86.36;91109.16;5019315;28;20021;-86
2021/07/08 01:03:57;;;;;;;2.65;0.70;;;;;;;12.38;86.60;91094.41;5019631;28;20116;-88
2021/07/08 01:06:35;;;;;;;4.13;1.05;;;;;;;12.29;86.70;91080.69;5019059;28;20025;-85
2021/07/08 01:09:09;;;;;;;1.67;0.63;;;;;;;12.27;86.82;91072.47;5004207;28;20102;-85
2021/07/08 01:11:47;;;;;;;1.42;0.90;;;;;;;12.31;87.16;91062.84;5019403;28;20421;-86
2021/07/08 01:14:24;;;;;;;2.78;0.85;;;;;;;12.46;86.39;91060.59;5019903;28;20033;-86
2021/07/08 01:17:03;;;;;;;4.00;0.80;;;;;;;12.35;86.67;91068.94;5036811;28;20032;-86
2021/07/08 01:19:48;;;;;;;1.83;0.70;;;;;;;12.33;87.03;91078.97;5036282;28;20044;-87
2021/07/08 01:22:27;;;;;;;2.60;0.60;;;;;;;12.35;86.62;91084.59;5021766;28;20022;-87
2021/07/08 01:25:07;;;;;;;0.70;0.50;;;;;;;12.33;86.45;91083.41;5023976;28;20020;-87
2021/07/08 01:27:49;;;;;;;3.38;0.55;;;;;;;12.34;87.02;91079.72;5040374;28;20036;-86
2021/07/08 01:30:27;;;;;;;3.70;0.80;;;;;;;12.25;87.08;91064.19;5056125;28;20029;-87
2021/07/08 01:33:12;;;;;;;3.33;0.95;;;;;;;12.27;87.37;91061.25;5040441;28;20033;-87
2021/07/08 01:35:53;;;;;;;2.75;1.25;;;;;;;12.28;87.40;91053.06;5056654;28;20029;-89
2021/07/08 01:38:26;;;;;;;4.28;0.90;;;;;;;12.31;87.57;91044.56;5056126;28;20012;-86
2021/07/08 01:41:05;;;;;;;2.15;0.90;;;;;;;12.24;88.20;91031.31;5057134;28;20500;-86
2021/07/08 01:43:44;;;;;;;4.45;0.70;;;;;;;12.20;87.86;91025.25;5040868;28;20031;-88
2021/07/08 01:46:28;;;;;;;2.42;0.73;;;;;;;12.11;87.84;91048.88;5041700;28;20024;-86
2021/07/08 01:49:04;;;;;;;4.13;0.70;;;;;;;12.12;87.92;91052.25;5026326;28;20096;-86
2021/07/08 01:51:44;;;;;;;1.25;0.70;;;;;;;12.19;88.08;91068.13;5028864;28;20524;-87
2021/07/08 01:54:19;;;;;;;2.03;0.90;;;;;;;12.14;88.41;91074.34;5021191;28;20053;-86
2021/07/08 01:56:56;;;;;;;1.83;1.30;;;;;;;12.26;88.72;91078.00;5021961;28;20017;-87
2021/07/08 01:59:36;;;;;;;3.28;1.45;;;;;;;12.29;87.98;91093.78;5037857;28;20025;-86
2021/07/08 02:02:15;;;;;;;3.88;2.40;;;;;;;12.16;88.43;91100.16;5022149;28;20507;-86
2021/07/08 02:04:54;;;;;;;3.33;1.83;;;;;;;12.13;89.10;91106.78;5020324;28;20493;-86
2021/07/08 02:07:31;;;;;;;4.28;1.50;;;;;;;12.21;89.32;91115.59;5037605;28;20046;-86
2021/07/08 02:10:13;;;;;;;7.78;3.17;;;;;;;12.27;89.47;91103.81;5021433;28;20045;-88
2021/07/08 02:12:49;;;;;;;3.90;2.60;;;;;;;12.33;89.54;91112.94;5026377;28;20060;-87
2021/07/08 02:15:27;;;;;;;4.05;2.15;;;;;;;12.27;89.27;91114.25;5049795;28;20048;-87
2021/07/08 02:18:05;;;;;;;5.43;2.00;;;;;;;12.29;89.44;91127.75;5023866;28;20104;-86
2021/07/08 02:20:37;;;;;;;5.43;2.90;;;;;;;12.28;89.96;91126.22;5015434;28;20370;-86
2021/07/08 02:23:16;;;;;;;6.72;4.53;;;;;;;12.29;90.02;91116.53;5031657;28;20026;-86
2021/07/08 02:25:57;;;;;;;5.63;3.88;;;;;;;12.39;89.97;91124.66;5013368;28;20026;-86
2021/07/08 02:28:33;;;;;;;3.83;2.78;;;;;;;12.40;89.87;91118.34;4997737;28;20057;-86
2021/07/08 02:31:11;;;;;;;3.33;1.90;;;;;;;12.41;89.00;91127.72;5015932;28;20092;-86
2021/07/08 02:33:53;;;;;;;2.92;1.65;;;;;;;12.36;89.68;91127.94;5020273;28;20461;-87
2021/07/08 02:36:33;;;;;;;4.10;2.05;;;;;;;12.67;88.15;91134.34;5029279;28;20053;-88
2021/07/08 02:39:07;;;;;;;6.70;3.05;;;;;;;12.52;89.10;91130.59;5040251;28;20064;-88
2021/07/08 02:41:42;;;;;;;;;;;;;;;12.47;89.92;91137.91;5030345;28;20506;-85
2021/07/08 02:44:21;;;;;;;6.00;3.03;;;;;;;12.41;90.05;91125.09;5014849;28;19910;-83
2021/07/08 02:47:01;;;;;;;4.82;2.25;;;;;;;12.41;90.05;91130.31;4999693;28;20116;-85
2021/07/08 02:49:37;;;;;;;3.33;1.85;;;;;;;12.36;90.24;91121.94;5036499;23;20046;-85
2021/07/08 02:52:17;;;;;;;4.07;2.25;;;;;;;12.45;90.16;91117.34;5013566;28;20026;-85
2021/07/08 02:54:56;;;;;;;4.38;2.30;;;;;;;12.41;90.17;91100.81;5013661;28;20608;-84
2021/07/08 02:57:25;;;;;;;5.40;3.17;;;;;;;12.39;90.30;91085.44;4997227;28;20034;-84
2021/07/08 03:00:04;;;;;;;4.60;3.15;;;;;;;12.39;90.29;91064.53;5023527;28;20405;-85
2021/07/08 03:02:49;;;;;;;6.32;3.55;;;;;;;12.31;90.70;91052.41;5035147;28;20648;-84
2021/07/08 03:05:31;;;;;;;8.05;4.10;;;;;;;12.15;91.22;91056.81;5034503;28;20041;-87
2021/07/08 03:08:10;;;;;;;5.75;3.72;;;;;;;12.22;90.92;91043.19;5034324;28;20036;-87
2021/07/08 03:10:47;;;;;;;7.85;4.65;;;;;;;12.14;91.52;91044.84;5017224;28;20079;-86
2021/07/08 03:13:25;;;;;;;6.18;4.55;;;;;;;12.12;91.32;91037.38;5033087;28;20029;-87
2021/07/08 03:16:04;;;;;;;6.60;3.85;;;;;;;12.09;92.01;91056.31;5033104;28;20025;-87
2021/07/08 03:18:41;;;;;;;7.55;3.65;;;;;;;12.22;91.19;91059.63;5017255;28;20025;-87
2021/07/08 03:21:19;;;;;;;7.70;3.80;;;;;;;12.29;90.64;91053.81;5032848;28;20112;-87
2021/07/08 03:23:56;;;;;;;5.82;3.58;;;;;;;12.28;90.52;91058.28;5017279;28;20025;-87
2021/07/08 03:26:27;;;;;;;4.90;3.90;;;;;;;12.27;90.96;91056.78;5032567;28;20506;-87
2021/07/08 03:29:06;;;;;;;4.68;3.78;;;;;;;12.24;91.37;91062.66;5032486;28;20021;-87
2021/07/08 03:31:42;;;;;;;5.40;3.45;;;;;;;12.29;91.90;91062.41;5032526;28;20025;-88
2021/07/08 03:34:22;;;;;;;5.22;3.90;;;;;;;12.28;91.72;91052.31;5032440;28;20615;-88
2021/07/08 03:36:58;;;;;;;3.65;2.47;;;;;;;12.48;90.74;91048.72;5032516;28;20025;-87
2021/07/08 03:39:42;;;;;;;5.07;3.30;;;;;;;12.42;90.52;91042.97;5016060;28;20025;-87
2021/07/08 03:42:17;;;;;;;3.80;2.90;;;;;;;12.41;90.64;91030.25;5031793;28;20029;-87
2021/07/08 03:44:54;;;;;;;4.25;3.10;;;;;;;12.39;90.48;91027.19;5032447;28;20026;-87
2021/07/08 03:47:31;;;;;;;5.75;2.97;;;;;;;12.34;90.39;91020.38;5031914;28;20621;-87
2021/07/08 03:50:09;;;;;;;5.78;3.05;;;;;;;12.32;90.25;91027.03;5012322;28;20494;-87
2021/07/08 03:52:45;;;;;;;3.70;2.72;;;;;;;12.38;89.94;91026.44;4996504;28;20088;-87
2021/07/08 03:55:31;;;;;;;4.47;3.22;;;;;;;12.32;90.62;91030.41;4997173;28;20490;-87
2021/07/08 03:58:08;;;;;;;4.65;3.67;;;;;;;12.32;90.66;91034.88;5013610;28;20026;-87
2021/07/08 04:00:42;;;;;;;8.73;3.97;;;;;;;12.31;90.76;91026.28;4995818;28;20083;-87
2021/07/08 04:03:18;;;;;;;6.10;3.90;;;;;;;12.34;90.76;91025.59;4996048;28;20026;-85
2021/07/08 04:05:54;;;;;;;6.60;4.63;;;;;;;12.34;91.13;91020.38;5011897;28;20026;-87
2021/07/08 04:08:31;;;;;;;8.05;5.07;;;;;;;12.46;90.54;91010.94;4996526;28;20549;-87
2021/07/08 04:11:10;;;;;;;7.05;5.32;;;;;;;12.30;90.98;91016.91;5011807;28;20068;-87
2021/07/08 04:13:45;;;;;;;8.02;5.18;;;;;;;12.30;91.76;91024.75;5007387;28;20025;-87
2021/07/08 04:16:25;;;;;;;7.00;3.97;;;;;;;12.38;91.21;91026.44;5015632;28;20029;-87
2021/07/08 04:19:00;;;;;;;7.03;4.97;;;;;;;12.40;90.99;91013.81;5031396;28;20030;-88
2021/07/08 04:21:37;;;;;;;6.03;4.28;;;;;;;12.42;90.90;91039.59;5031281;28;20481;-87
2021/07/08 04:24:15;;;;;;;6.03;4.25;;;;;;;12.39;91.36;91054.09;5031441;28;20124;-87
2021/07/08 04:26:50;;;;;;;4.15;3.15;;;;;;;12.44;90.80;91064.31;5049279;28;20370;-87
2021/07/08 04:29:27;;;;;;;6.70;3.40;;;;;;;12.46;90.64;91066.59;5035125;28;20497;-86
2021/07/08 04:32:09;;;;;;;5.28;3.72;;;;;;;12.42;90.81;91063.88;5035785;28;20071;-87
2021/07/08 04:34:48;;;;;;;7.10;3.53;;;;;;;12.40;90.94;91054.84;5051159;28;20025;-87
2021/07/08 04:37:27;;;;;;;6.47;4.18;;;;;;;12.38;91.29;91047.34;5035063;28;20029;-87
2021/07/08 04:40:05;;;;;;;5.18;4.00;;;;;;;12.48;91.02;91040.88;5050136;28;20021;-87
2021/07/08 04:42:43;;;;;;;8.27;3.45;;;;;;;12.65;89.73;91037.19;5032728;28;20026;-88
2021/07/08 04:45:19;;;;;;;7.85;4.45;;;;;;;12.43;90.95;91044.47;5032365;28;20026;-86
2021/07/08 04:47:57;;;;;;;5.00;4.03;;;;;;;12.39;91.44;91048.09;5030987;28;20088;-87
2021/07/08 04:50:34;;;;;;;6.78;5.03;;;;;;;12.37;92.08;91043.22;5011388;28;20030;-87
2021/07/08 04:53:17;;;;;;;7.10;5.25;;;;;;;12.41;92.03;91043.31;5011307;28;20030;-87
2021/07/08 04:55:58;;;;;;;7.32;5.18;;;;;;;12.50;91.82;91046.50;4996164;28;20030;-87
2021/07/08 04:58:37;;;;;;;7.75;5.60;;;;;;;12.52;92.36;91056.66;5012660;28;20025;-87
2021/07/08 05:01:14;;;;;;;8.52;5.63;;;;;;;12.56;92.87;91068.72;4995306;28;20029;-87
2021/07/08 05:03:48;;;;;;;6.28;4.63;;;;;;;12.58;92.17;91070.97;4995496;28;20490;-88
2021/07/08 05:06:31;;;;;;;7.85;4.70;;;;;;;12.60;92.40;91059.09;5010990;28;20100;-88
2021/07/08 05:09:05;;;;;;;7.15;5.13;;;;;;;12.65;92.33;91058.09;5015446;28;20396;-87
2021/07/08 05:11:41;;;;;;;6.53;4.40;;;;;;;12.67;91.76;91063.75;5030606;28;20053;-87
2021/07/08 05:14:17;;;;;;;5.40;4.10;;;;;;;12.58;91.67;91060.53;4999010;28;20037;-87
2021/07/08 05:16:52;;;;;;;6.25;4.22;;;;;;;12.63;91.61;91068.88;5031139;28;20033;-87
2021/07/08 05:19:27;;;;;;;5.82;4.43;;;;;;;12.68;91.61;91070.47;5014693;28;20072;-87
2021/07/08 05:21:54;;;;;;;5.82;4.45;;;;;;;12.76;91.61;91077.44;5013667;28;20029;-87
2021/07/08 05:24:36;;;;;;;5.75;4.53;;;;;;;12.83;91.56;91074.97;4997634;28;20040;-88
2021/07/08 05:27:19;;;;;;;6.25;4.53;;;;;;;12.88;91.12;91074.72;5027320;28;20045;-87
2021/07/08 05:29:50;;;;;;;5.22;3.90;;;;;;;12.89;91.79;91086.69;4993951;28;20105;-87
2021/07/08 05:32:28;;;;;;;6.88;4.63;;;;;;;12.93;91.65;91086.78;5010534;28;20073;-88
2021/07/08 05:35:06;;;;;;;7.57;3.85;;;;;;;12.98;91.78;91101.47;4995146;28;20026;-87
2021/07/08 05:37:44;;;;;;;6.82;4.13;;;;;;;13.07;90.97;91108.06;5003517;28;20401;-88
2021/07/08 05:40:19;;;;;;;7.25;4.20;;;;;;;13.06;90.81;91100.53;5030747;28;20067;-87
2021/07/08 05:42:55;;;;;;;6.80;4.72;;;;;;;13.08;90.64;91106.22;5014282;28;20378;-87
2021/07/08 05:45:30;;;;;;;7.15;4.82;;;;;;;13.10;90.72;91106.63;5014388;28;20032;-88
2021/07/08 05:48:08;;;;;;;5.22;3.83;;;;;;;13.18;90.46;91113.56;5014341;28;20021;-87
2021/07/08 05:50:43;;;;;;;4.72;3.72;;;;;;;13.22;90.38;91111.78;5029341;28;20397;-87
2021/07/08 05:53:20;;;;;;;5.15;3.92;;;;;;;13.29;90.42;91104.13;5030140;28;20029;-87
2021/07/08 05:55:54;;;;;;;5.45;4.32;;;;;;;13.39;90.91;91105.44;5031316;28;20021;-87
2021/07/08 05:58:27;;;;;;;5.63;4.05;;;;;;;13.53;90.75;91097.13;5029923;28;20045;-87
2021/07/08 06:01:03;;;;;;;6.68;4.05;;;;;;;13.54;90.55;91103.91;5029495;28;20029;-87
2021/07/08 06:03:44;;;;;;;4.80;3.80;;;;;;;13.72;90.31;91125.25;5030004;28;20021;-88
2021/07/08 06:06:22;;;;;;;5.28;3.97;;;;;;;13.82;89.24;91120.25;5033277;28;20485;-88
2021/07/08 06:09:07;;;;;;;6.57;4.22;;;;;;;13.84;89.34;91123.25;5034254;28;20116;-87
2021/07/08 06:11:45;;;;;;;4.70;3.22;;;;;;;13.92;89.35;91128.66;5034085;28;20089;-87
2021/07/08 06:14:18;;;;;;;5.25;3.47;;;;;;;14.01;89.44;91137.09;5018388;28;20036;-88
2021/07/08 06:16:54;;;;;;;5.50;4.40;;;;;;;14.10;89.85;91133.16;5034038;28;20061;-87
2021/07/08 06:19:33;;;;;;;5.55;3.97;;;;;;;14.13;89.47;91134.31;5033582;28;20052;-88
2021/07/08 06:22:12;;;;;;;5.45;4.40;;;;;;;14.10;89.85;91129.78;5018218;28;20026;-87
2021/07/08 06:24:43;;;;;;;7.20;4.18;;;;;;;14.17;89.30;91127.31;5033467;28;20029;-87
2021/07/08 06:27:21;;;;;;;4.35;3.80;;;;;;;14.18;89.12;91122.84;5033897;28;20033;-88
2021/07/08 06:29:59;;;;;;;4.70;3.83;;;;;;;14.30;88.96;91127.94;5034498;28;20056;-87
2021/07/08 06:32:34;;;;;;;7.18;4.68;;;;;;;14.27;88.63;91128.59;5018131;28;20033;-87
2021/07/08 06:35:17;;;;;;;7.38;4.82;;;;;;;14.29;88.37;91135.03;5017160;28;20030;-87
2021/07/08 06:37:50;;;;;;;5.90;4.75;;;;;;;14.31;88.48;91130.22;5033869;28;20401;-87
2021/07/08 06:40:26;;;;;;;6.90;4.97;;;;;;;14.38;87.17;91144.53;5033131;28;20104;-88
2021/07/08 06:43:04;;;;;;;6.60;4.38;;;;;;;14.39;88.23;91149.47;5034643;28;20033;-87
2021/07/08 06:45:42;;;;;;;5.43;3.80;;;;;;;14.51;87.69;91136.22;5033339;28;20025;-87
2021/07/08 06:48:22;;;;;;;6.05;4.18;;;;;;;14.62;87.06;91133.81;5018117;28;20037;-86
2021/07/08 06:50:48;;;;;;;7.18;3.85;;;;;;;14.72;87.81;91133.25;5016589;28;20040;-88
2021/07/08 06:53:15;;;;;;;4.03;3.40;;;;;;;14.88;87.12;91140.28;5020234;28;20100;-88
2021/07/08 06:55:48;;;;;;;5.35;3.53;;;;;;;14.96;87.08;91132.16;5025609;28;20021;-87
2021/07/08 06:58:21;;;;;;;4.80;3.20;;;;;;;15.14;86.29;91124.59;5044762;28;20018;-87
2021/07/08 07:00:47;;;;;;;3.75;3.08;;;;;;;15.31;86.26;91118.13;5016999;28;20025;-88
2021/07/08 07:03:23;;;;;;;3.40;2.30;;;;;;;15.36;82.28;91117.06;5032878;28;20030;-87
2021/07/08 07:05:59;;;;;;;4.35;2.42;;;;;;;15.40;82.54;91110.00;5000390;28;20029;-88
2021/07/08 07:08:33;;;;;;;3.13;2.40;;;;;;;15.59;84.15;91104.66;5016618;28;20025;-88
2021/07/08 07:11:11;;;;;;;4.80;2.15;;;;;;;15.62;81.83;91101.34;5001262;28;20029;-87
2021/07/08 07:13:50;;;;;;;3.38;1.90;;;;;;;15.66;79.88;91119.81;5017420;28;20052;-88
2021/07/08 07:16:23;;;;;;;4.85;2.00;;;;;;;15.60;81.70;91132.44;5034521;28;20025;-87
2021/07/08 07:18:49;;;;;;;2.88;1.58;;;;;;;15.56;82.35;91144.75;5034384;28;20020;-87
2021/07/08 07:21:15;;;;;;;3.65;2.00;;;;;;;15.43;82.04;91125.03;5025246;28;20026;-87
2021/07/08 07:23:42;;;;;;;2.22;1.67;;;;;;;15.48;81.56;91114.25;5034849;28;20441;-88
2021/07/08 07:26:08;;;;;;;2.10;1.45;;;;;;;15.52;83.11;91109.81;5019891;28;20017;-87
2021/07/08 07:28:35;;;;;;;2.33;1.67;;;;;;;15.48;83.45;91109.00;5023711;28;20374;-87
2021/07/08 07:31:00;;;;;;;1.60;1.35;;;;;;;15.52;82.96;91115.06;5031519;28;20477;-91
2021/07/08 07:33:27;;;;;;;3.65;1.60;;;;;;;15.50;84.01;91127.78;5031999;28;20030;-88
2021/07/08 07:36:00;;;;;;;2.17;1.30;;;;;;;15.42;83.50;91144.53;5022228;28;20384;-88
2021/07/08 07:38:27;;;;;;;3.53;1.40;;;;;;;15.33;83.57;91144.00;5036251;28;20025;-86
2021/07/08 07:40:55;;;;;;;2.20;1.60;;;;;;;15.21;84.22;91135.22;5033785;28;20033;-87
2021/07/08 07:43:21;;;;;;;2.88;1.30;;;;;;;15.54;83.04;91144.34;5015634;28;20025;-88
2021/07/08 07:45:49;;;;;;;2.30;1.38;;;;;;;15.67;80.42;91148.34;5015486;28;20120;-86
2021/07/08 07:48:19;;;;;;;2.38;1.40;;;;;;;15.68;80.26;91138.56;5039651;28;20022;-87
2021/07/08 07:50:48;;;;;;;2.38;1.40;;;;;;;15.63;79.07;91142.25;5044235;28;20057;-87
2021/07/08 07:53:17;;;;;;;1.40;1.10;;;;;;;15.78;78.48;91144.00;5020983;28;20147;-87
2021/07/08 07:55:48;;;;;;;1.40;1.20;;;;;;;15.89;78.72;91157.28;5047265;28;20021;-87
2021/07/08 07:58:19;;;;;;;2.08;1.40;;;;;;;15.89;78.70;91165.16;5024201;28;20064;-87
2021/07/08 08:00:45;;;;;;;2.15;1.30;;;;;;;15.88;78.37;91155.00;5038670;28;20078;-88
2021/07/08 08:03:11;;;;;;;3.25;1.27;;;;;;;15.78;79.30;91157.13;5032266;28;20024;-88
2021/07/08 08:05:39;;;;;;;1.80;1.30;;;;;;;15.65;79.55;91163.66;5031652;28;20497;-87
2021/07/08 08:10:52;;;;;;;2.08;1.30;;;;;;;15.49;81.13;91184.03;5037379;28;20043;-88
2021/07/08 08:13:19;;;;;;;5.40;1.30;;;;;;;15.38;82.17;91189.13;5051765;28;20025;-87
2021/07/08 08:15:45;;;;;;;1.65;1.10;;;;;;;15.32;80.33;91176.63;5034934;28;20024;-89
2021/07/08 08:18:10;;;;;;;2.47;1.10;;;;;;;15.30;80.16;91182.25;5034611;28;20029;-87
2021/07/08 08:20:36;;;;;;;2.00;1.23;;;;;;;15.31;79.84;91183.75;5045688;28;20021;-87
2021/07/08 08:23:01;;;;;;;2.83;1.10;;;;;;;15.31;79.51;91189.00;5031670;28;20048;-87
2021/07/08 08:25:26;;;;;;;1.08;0.82;;;;;;;15.24;79.05;91186.25;5016198;28;20109;-87
2021/07/08 08:27:52;;;;;;;1.60;1.10;;;;;;;15.22;79.54;91194.47;5030357;28;20088;-87
2021/07/08 08:30:17;;;;;;;1.30;1.10;;;;;;;15.05;80.65;91198.31;5014060;28;20030;-87
2021/07/08 08:32:44;;;;;;;2.78;1.20;;;;;;;15.13;79.66;91183.47;5032781;28;20213;-88
2021/07/08 08:35:10;;;;;;;2.80;1.20;;;;;;;14.87;81.26;91160.50;5030933;28;20018;-86
2021/07/08 08:37:36;;;;;;;3.45;2.00;;;;;;;14.90;81.43;91103.94;5031591;28;20025;-86
2021/07/08 08:40:01;;;;;;;3.38;1.23;;;;;;;14.75;82.63;91082.72;5030995;28;20028;-87
2021/07/08 08:42:27;;;;;;;1.40;1.20;;;;;;;14.90;82.89;91101.31;5030772;28;21007;-88
2021/07/08 08:44:55;;;;;;;2.38;1.27;;;;;;;14.86;83.55;91090.00;5030470;28;20056;-87
2021/07/08 08:47:21;;;;;;;2.50;1.40;;;;;;;14.90;82.99;91102.06;5014234;28;20035;-87
2021/07/08 08:49:46;;;;;;;3.33;1.58;;;;;;;14.94;82.47;91104.75;5030506;23;20132;-86
2021/07/08 08:52:12;;;;;;;2.45;1.10;;;;;;;15.05;83.20;91124.06;5035629;28;20104;-84
2021/07/08 08:54:41;;;;;;;2.75;1.30;;;;;;;15.18;83.90;91130.66;5020206;28;20030;-85
2021/07/08 08:57:08;;;;;;;2.95;1.23;;;;;;;15.22;82.52;91128.84;5031582;28;20029;-86
2021/07/08 08:59:44;;;;;;;1.90;1.40;;;;;;;15.34;81.65;91140.28;5031685;28;20025;-86
2021/07/08 09:02:18;;;;;;;2.38;1.30;;;;;;;15.51;78.66;91134.53;4999503;28;20562;-87
2021/07/08 09:04:44;;;;;;;4.07;1.88;;;;;;;15.60;79.44;91127.19;4999392;28;20444;-86
2021/07/08 09:07:33;;;;;;;1.73;1.10;;;;;;;15.77;78.92;91133.84;5015937;28;20091;-85
2021/07/08 09:10:00;;;;;;;3.35;1.20;;;;;;;15.94;78.60;91141.22;5051864;28;20020;-87
2021/07/08 09:12:27;;;;;;;1.42;1.13;;;;;;;15.82;79.60;91143.28;5035007;28;20508;-85
2021/07/08 09:15:14;;;;;;;1.88;1.10;;;;;;;15.97;77.91;91145.00;5035160;28;20032;-86
2021/07/08 09:17:41;;;;;;;1.92;0.90;;;;;;;15.66;77.83;91152.06;5037704;28;20024;-86
2021/07/08 09:20:17;;;;;;;1.60;1.20;;;;;;;15.60;78.05;91153.44;5051219;28;20021;-86
2021/07/08 09:22:47;;;;;;;2.97;1.00;;;;;;;15.85;77.96;91179.38;5052342;28;20020;-86
2021/07/08 09:25:19;;;;;;;3.75;1.08;;;;;;;15.88;79.11;91183.91;5035255;28;20111;-86
2021/07/08 09:27:53;;;;;;;2.22;1.20;;;;;;;15.72;76.36;91176.94;5052490;28;20392;-86
2021/07/08 09:30:26;;;;;;;1.98;1.30;;;;;;;15.76;75.40;91172.50;5018679;28;20034;-86
2021/07/08 09:32:54;;;;;;;1.67;1.08;;;;;;;15.81;75.52;91173.31;5034953;28;20064;-84
2021/07/08 09:35:41;;;;;;;2.75;1.00;;;;;;;15.97;76.58;91171.28;5051050;28;20112;-86
2021/07/08 09:38:11;;;;;;;1.75;1.00;;;;;;;16.11;73.87;91170.72;5018602;28;20056;-86
2021/07/08 09:40:42;;;;;;;2.28;1.20;;;;;;;16.21;76.41;91155.06;5034135;28;20100;-85
2021/07/08 09:43:15;;;;;;;1.83;1.10;;;;;;;16.31;74.60;91147.69;5018842;28;20166;-84
2021/07/08 09:45:45;;;;;;;1.20;1.00;;;;;;;16.58;74.87;91143.13;5018223;28;20056;-86
2021/07/08 09:48:18;;;;;;;1.50;1.20;;;;;;;16.65;71.80;91159.00;5034473;28;20067;-85
2021/07/08 09:50:53;;;;;;;5.68;1.08;;;;;;;16.65;72.95;91151.88;5050764;28;20053;-86
2021/07/08 09:53:21;;;;;;;1.38;0.90;;;;;;;16.78;69.08;91164.78;5034492;28;20033;-85
2021/07/08 09:58:53;;;;;;;1.55;0.80;;;;;;;16.91;73.80;91173.97;5049277;28;20126;-85
2021/07/08 10:01:19;;;;;;;1.52;0.90;;;;;;;17.13;72.13;91164.41;5050696;28;20029;-85
2021/07/08 10:03:45;;;;;;;1.10;0.98;;;;;;;17.20;72.31;91159.97;5034047;28;20029;-86
2021/07/08 10:06:14;;;;;;;1.88;1.08;;;;;;;17.15;69.16;91157.66;5051712;28;20033;-85
2021/07/08 10:08:41;;;;;;;2.00;0.82;;;;;;;17.30;67.29;91142.75;5054232;28;20024;-85
2021/07/08 10:11:15;;;;;;;2.13;1.00;;;;;;;17.20;67.61;91148.69;5035687;28;20025;-86
2021/07/08 10:13:46;;;;;;;1.52;1.00;;;;;;;16.97;67.78;91146.22;5050472;28;20028;-86
2021/07/08 10:16:14;;;;;;;1.10;0.88;;;;;;;17.15;71.63;91147.13;5051559;28;20040;-86
2021/07/08 10:18:48;;;;;;;1.27;0.90;;;;;;;17.24;72.22;91148.72;5034495;28;20033;-85
2021/07/08 10:21:16;;;;;;;1.23;0.90;;;;;;;17.14;71.00;91150.91;5050680;28;20033;-86
2021/07/08 10:23:42;;;;;;;1.50;0.90;;;;;;;17.12;70.83;91158.38;5033869;28;20035;-85
2021/07/08 10:26:16;;;;;;;1.30;0.90;;;;;;;17.03;73.43;91165.84;5036923;28;20040;-85
2021/07/08 10:28:46;;;;;;;1.55;1.10;;;;;;;16.83;69.54;91162.63;5030318;28;20075;-85
2021/07/08 10:31:23;;;;;;;1.95;0.90;;;;;;;17.05;69.97;91152.31;5029946;28;20068;-85
2021/07/08 10:34:11;;;;;;;1.95;0.80;;;;;;;16.93;69.47;91153.31;5030401;28;20025;-87
2021/07/08 10:36:37;;;;;;;1.40;1.00;;;;;;;17.27;68.52;91161.16;5046802;28;20025;-86
2021/07/08 10:39:14;;;;;;;1.35;0.80;;;;;;;17.31;67.86;91154.78;5030071;28;20017;-84
2021/07/08 10:41:48;;;;;;;1.20;0.88;;;;;;;17.56;67.57;91154.25;5046231;28;20083;-84
2021/07/08 10:44:37;;;;;;;1.52;1.10;;;;;;;17.35;67.47;91158.25;5030483;28;20028;-86
2021/07/08 10:47:04;;;;;;;1.20;0.90;;;;;;;17.31;67.11;91164.56;5030273;28;20055;-86
2021/07/08 10:49:46;;;;;;;1.83;0.90;;;;;;;17.31;67.22;91167.97;5029471;28;20083;-87
2021/07/08 10:52:12;;;;;;;1.63;1.00;;;;;;;17.25;68.83;91168.69;5016429;28;20026;-86
2021/07/08 10:54:49;;;;;;;1.52;0.80;;;;;;;17.11;70.80;91150.88;5044371;28;20027;-85
2021/07/08 10:57:41;;;;;;;2.95;1.10;;;;;;;17.17;69.37;91155.44;5075472;28;20020;-86
2021/07/08 11:00:09;;;;;;;1.67;1.20;;;;;;;17.14;73.68;91155.41;5074872;28;20108;-86
2021/07/08 11:02:51;;;;;;;1.70;1.10;;;;;;;17.17;74.28;91165.97;5057872;28;20055;-86
2021/07/08 11:05:58;;;;;;;4.38;1.50;;;;;;;17.27;72.23;91169.06;5074602;28;20028;-87
2021/07/08 11:08:51;;;;;;;3.53;1.35;;;;;;;17.46;72.60;91163.59;5074399;28;20056;-86
2021/07/08 11:11:21;;;;;;;3.30;1.38;;;;;;;17.46;72.16;91160.22;5075086;28;20024;-87
2021/07/08 11:13:54;;;;;;;3.10;1.27;;;;;;;17.38;71.90;91156.72;5075026;28;20491;-87
2021/07/08 11:16:45;;;;;;;1.60;1.10;;;;;;;17.42;71.57;91144.34;5056600;28;20036;-87
2021/07/08 11:19:24;;;;;;;3.35;1.42;;;;;;;17.02;70.74;91145.88;5072287;28;20025;-86
2021/07/08 11:22:02;;;;;;;2.28;1.50;;;;;;;16.92;72.77;91147.28;5072120;28;20517;-87
2021/07/08 11:24:46;;;;;;;2.53;1.48;;;;;;;16.80;71.62;91141.53;5041130;28;20028;-86
2021/07/08 11:27:28;;;;;;;2.00;1.45;;;;;;;16.94;71.92;91141.66;5033285;28;20082;-87
2021/07/08 11:30:05;;;;;;;7.03;1.95;;;;;;;16.77;71.59;91158.78;5033238;28;20080;-86
2021/07/08 11:32:54;;;;;;;2.30;1.60;;;;;;;16.78;72.16;91141.13;5032343;28;20025;-86
2021/07/08 11:35:36;;;;;;;4.43;1.80;;;;;;;16.72;72.20;91141.41;5032497;28;20018;-87
2021/07/08 11:38:07;;;;;;;5.00;2.33;;;;;;;16.71;73.41;91137.28;5032968;28;20049;-86
2021/07/08 11:40:42;;;;;;;6.22;2.70;;;;;;;16.63;72.51;91142.81;5031650;28;20033;-86
2021/07/08 11:43:21;;;;;;;8.13;2.67;;;;;;;16.80;74.55;91131.00;5047610;28;20029;-87
2021/07/08 11:45:50;;;;;;;4.68;2.92;;;;;;;16.99;72.72;91133.44;5032292;28;20044;-87
2021/07/08 11:48:31;;;;;;;4.18;2.50;;;;;;;17.04;74.04;91130.50;5031867;28;20026;-87
2021/07/08 11:50:58;;;;;;;4.93;3.47;;;;;;;16.72;72.96;91123.00;5032425;28;20108;-87
2021/07/08 11:53:32;;;;;;;5.38;3.10;;;;;;;16.85;73.93;91117.50;5032496;28;20498;-86
2021/07/08 11:55:58;;;;;;;;;;;;;;;16.62;74.73;91123.63;5048267;28;20404;-87
2021/07/08 11:58:36;;;;;;;5.18;3.70;;;;;;;16.52;73.29;91111.13;5071984;28;19997;-86
2021/07/08 12:01:11;;;;;;;7.05;4.47;;;;;;;16.54;73.92;91123.91;5071765;28;20484;-87
2021/07/08 12:03:40;;;;;;;8.65;5.20;;;;;;;16.64;72.97;91124.06;5055557;28;20024;-86
2021/07/08 12:06:11;;;;;;;7.25;5.15;;;;;;;16.24;75.58;91128.06;5073076;28;20036;-86
2021/07/08 12:08:55;;;;;;;5.18;4.30;;;;;;;16.59;74.89;91118.34;5071995;28;20032;-86
2021/07/08 12:11:34;;;;;;;8.25;4.47;;;;;;;16.60;73.63;91117.97;5055252;28;20445;-87
2021/07/08 12:14:10;;;;;;;5.55;4.25;;;;;;;17.04;73.06;91109.44;5071271;28;20040;-86
2021/07/08 12:16:53;;;;;;;3.97;3.20;;;;;;;17.42;74.06;91112.75;5072652;28;20103;-87